Archival Weather

South Haven Area Rgnl

South Haven, Michigan (KLWA)

Report from: Thursday, September 21, 2023 2:15 PM EDT
Current time: Sunday, July 14, 2024 7:25 AM EDT

Current weather – Weather history – Daily summaries
Weather forecast

Temperature25.4°C (77.7°F)
Dew point16.9°C (62.4°F)
Winds 4 kts (2.1 m/s, 4.6 mph) East (100°)
Visibility10 mi. (16.1 km)
Clouds Sky clear
Altimeter30.23 in.Hg (1024 mB)
Relative humidity59 %
Density altitude1,117 ft. (341 m)
Remarks Fully automated report
Automated weather observing station with precipitation discriminator
Flight conditions Visual Meteorological Conditions
Raw dataKLWA 211815Z AUTO 10004KT 10SM CLR 25/17 A3023 RMK AO2 T02540169
An error has occurred. This application may no longer respond until reloaded. Reload 🗙